createdAt,value
2018-08-07T00:00:31.936Z,100086.82
2018-08-07T00:03:00.008Z,100084.34
2018-08-07T00:05:28.051Z,100082.81
2018-08-07T00:07:56.346Z,100078.25
2018-08-07T00:10:27.208Z,100075.01
2018-08-07T00:12:55.245Z,100074.24
2018-08-07T00:15:27.180Z,100071.05
2018-08-07T00:17:55.212Z,100066.91
2018-08-07T00:20:23.271Z,100071.37
2018-08-07T00:22:51.311Z,100074.27
2018-08-07T00:25:19.362Z,100065.13
2018-08-07T00:27:47.403Z,100072.74
2018-08-07T00:30:16.575Z,100069.84
2018-08-07T00:32:44.668Z,100068.38
2018-08-07T00:35:14.735Z,100065.97
2018-08-07T00:37:42.828Z,100061.83
2018-08-07T00:40:13.233Z,100066.98
2018-08-07T00:42:42.047Z,100065.17
2018-08-07T00:45:13.386Z,100062.79
2018-08-07T00:47:41.487Z,100058.29
2018-08-07T00:50:14.703Z,100066.72
2018-08-07T00:52:43.288Z,100065.77
2018-08-07T00:55:11.324Z,100060.41
2018-08-07T00:57:39.351Z,100057.86
2018-08-07T01:00:09.984Z,100060.28
2018-08-07T01:02:38.089Z,100062.37
2018-08-07T01:05:07.823Z,100057.62
2018-08-07T01:07:35.971Z,100054.68
2018-08-07T01:10:04.965Z,100057.67
2018-08-07T01:12:33.067Z,100054.44
2018-08-07T01:15:01.119Z,100051.47
2018-08-07T01:17:29.150Z,100053.89
2018-08-07T01:19:57.179Z,100056.77
2018-08-07T01:22:25.228Z,100052.19
2018-08-07T01:24:53.275Z,100048.59
2018-08-07T01:27:21.320Z,100045.88
2018-08-07T01:29:49.354Z,100044.34
2018-08-07T01:32:17.383Z,100041.89
2018-08-07T01:34:45.432Z,100042.44
2018-08-07T01:37:13.479Z,100036.19
2018-08-07T01:39:41.537Z,100034.28
2018-08-07T01:42:09.610Z,100034.83
2018-08-07T01:44:37.656Z,100030.92
2018-08-07T01:49:39.987Z,100036.42
2018-08-07T01:52:08.040Z,100034.83
2018-08-07T01:54:36.055Z,100032.64
2018-08-07T01:57:04.128Z,100027.98
2018-08-07T01:59:32.166Z,100028.88
2018-08-07T02:02:00.249Z,100033.33
2018-08-07T02:04:28.287Z,100026.39
2018-08-07T02:06:56.346Z,100025.23
2018-08-07T02:09:24.452Z,100026.88
2018-08-07T02:11:52.559Z,100020.19
2018-08-07T02:14:20.636Z,100026.58
2018-08-07T02:16:48.711Z,100027.34
2018-08-07T02:19:16.845Z,100024.24
2018-08-07T02:21:44.943Z,100025.04
2018-08-07T02:24:13.080Z,100025.23
2018-08-07T02:26:41.116Z,100022.48
2018-08-07T02:29:09.159Z,100023.58
2018-08-07T02:31:37.339Z,100017.80
2018-08-07T02:34:05.383Z,100014.08
2018-08-07T02:36:33.464Z,100011.03
2018-08-07T02:39:01.515Z,100012.67
2018-08-07T02:41:29.596Z,100004.69
2018-08-07T02:43:57.691Z,100007.68
2018-08-07T02:46:25.763Z,100002.28
2018-08-07T02:48:53.824Z,99995.28
2018-08-07T02:51:21.900Z,99997.70
2018-08-07T02:53:49.971Z,100001.14
2018-08-07T02:56:18.044Z,100000.10
2018-08-07T02:58:46.108Z,100001.29
2018-08-07T03:01:14.167Z,100003.14
2018-08-07T03:03:42.225Z,100002.28
2018-08-07T03:06:10.292Z,99998.18
2018-08-07T03:08:38.384Z,100000.06
2018-08-07T03:11:06.756Z,100007.89
2018-08-07T03:13:34.832Z,99997.75
2018-08-07T03:16:02.875Z,99994.71
2018-08-07T03:18:31.587Z,100000.25
2018-08-07T03:20:59.727Z,99999.58
2018-08-07T03:23:27.807Z,99998.23
2018-08-07T03:25:55.880Z,99995.51
2018-08-07T03:28:24.027Z,99999.31
2018-08-07T03:30:52.126Z,99998.95
2018-08-07T03:33:20.197Z,99994.71
2018-08-07T03:35:48.279Z,99993.43
2018-08-07T03:38:16.355Z,99990.78
2018-08-07T03:40:44.473Z,99992.95
2018-08-07T03:43:12.515Z,99994.59
2018-08-07T03:45:40.615Z,99991.07
2018-08-07T03:48:08.723Z,99992.64
2018-08-07T03:50:36.775Z,99998.62
2018-08-07T03:53:05.116Z,99997.22
2018-08-07T03:55:33.183Z,100004.02
2018-08-07T03:58:01.255Z,99995.82
2018-08-07T04:00:29.280Z,99996.83
2018-08-07T04:02:57.355Z,99999.46
2018-08-07T04:05:25.443Z,99991.31
2018-08-07T04:07:53.491Z,99994.03
2018-08-07T04:10:21.597Z,99993.19
2018-08-07T04:12:49.678Z,99997.77
2018-08-07T04:15:18.602Z,99997.09
2018-08-07T04:17:46.659Z,99998.49
2018-08-07T04:20:16.416Z,99992.90
2018-08-07T04:22:44.487Z,99997.48
2018-08-07T04:25:12.625Z,99997.05
2018-08-07T04:27:40.836Z,99994.44
2018-08-07T04:30:12.124Z,99996.09
2018-08-07T04:32:40.448Z,99993.27
2018-08-07T04:35:08.519Z,99992.16
2018-08-07T04:37:36.740Z,99989.41
2018-08-07T04:40:05.855Z,99997.11
2018-08-07T04:42:33.924Z,99993.39
2018-08-07T04:45:02.004Z,99995.45
2018-08-07T04:47:30.160Z,99994.92
2018-08-07T04:49:58.212Z,99989.70
2018-08-07T04:52:26.307Z,99991.24
2018-08-07T04:54:54.400Z,99992.36
2018-08-07T04:57:22.451Z,99988.30
2018-08-07T04:59:50.534Z,99987.77
2018-08-07T05:02:18.611Z,99987.25
2018-08-07T05:04:46.687Z,99986.08
2018-08-07T05:07:14.736Z,99991.92
2018-08-07T05:09:42.872Z,99988.69
2018-08-07T05:12:10.944Z,99988.00
2018-08-07T05:14:39.056Z,99989.55
2018-08-07T05:17:07.216Z,99994.45
2018-08-07T05:19:35.388Z,99985.75
2018-08-07T05:22:03.421Z,99985.50
2018-08-07T05:24:31.443Z,99984.09
2018-08-07T05:26:59.535Z,99991.08
2018-08-07T05:29:27.577Z,99989.53
2018-08-07T05:31:55.612Z,99988.23
2018-08-07T05:34:23.696Z,99990.62
2018-08-07T05:36:51.795Z,99992.86
2018-08-07T05:39:19.886Z,99994.64
2018-08-07T05:41:47.936Z,99991.12
2018-08-07T05:44:15.997Z,99990.84
2018-08-07T05:46:44.247Z,99992.87
2018-08-07T05:49:12.312Z,99990.31
2018-08-07T05:51:40.355Z,99983.33
2018-08-07T05:54:08.441Z,99986.73
2018-08-07T05:56:36.574Z,99989.27
2018-08-07T05:59:05.011Z,99989.80
2018-08-07T06:01:33.092Z,99998.88
2018-08-07T06:04:01.154Z,100002.13
2018-08-07T06:06:29.212Z,99994.70
2018-08-07T06:08:57.263Z,99988.02
2018-08-07T06:11:25.362Z,99993.03
2018-08-07T06:13:53.491Z,99993.63
2018-08-07T06:16:21.618Z,99989.67
2018-08-07T06:18:49.687Z,100002.45
2018-08-07T06:21:18.088Z,100003.72
2018-08-07T06:23:46.147Z,100001.25
2018-08-07T06:26:14.318Z,100004.06
2018-08-07T06:28:42.462Z,99999.72
2018-08-07T06:31:10.473Z,100004.56
2018-08-07T06:33:38.552Z,100000.31
2018-08-07T06:36:06.687Z,99994.10
2018-08-07T06:38:34.788Z,99992.03
2018-08-07T06:41:02.839Z,99997.29
2018-08-07T06:43:30.916Z,99997.27
2018-08-07T06:45:59.135Z,99985.55
2018-08-07T06:48:27.284Z,99998.20
2018-08-07T06:50:55.314Z,99993.59
2018-08-07T06:53:23.434Z,99992.83
2018-08-07T06:55:51.509Z,99989.27
2018-08-07T06:58:19.554Z,99991.95
2018-08-07T07:00:47.912Z,99984.59
2018-08-07T07:03:16.021Z,99985.93
2018-08-07T07:05:44.138Z,99987.58
2018-08-07T07:08:12.188Z,99982.52
2018-08-07T07:10:40.284Z,99979.26
2018-08-07T07:13:08.372Z,99978.66
2018-08-07T07:15:36.432Z,99973.78
2018-08-07T07:18:04.935Z,99971.17
2018-08-07T07:20:33.108Z,99972.48
2018-08-07T07:23:01.425Z,99977.66
2018-08-07T07:25:29.485Z,99968.78
2018-08-07T07:27:57.534Z,99969.87
2018-08-07T07:30:25.728Z,99965.20
2018-08-07T07:32:54.995Z,99968.69
2018-08-07T07:35:23.176Z,99968.25
2018-08-07T07:37:51.351Z,99959.80
2018-08-07T07:40:19.461Z,99952.34
2018-08-07T07:42:47.570Z,99955.34
2018-08-07T07:45:17.263Z,99958.19
2018-08-07T07:47:45.358Z,99953.97
2018-08-07T07:50:15.503Z,99949.11
2018-08-07T07:52:43.887Z,99948.58
2018-08-07T07:55:13.174Z,99947.49
2018-08-07T07:57:41.245Z,99950.92
2018-08-07T08:00:13.030Z,99942.52
2018-08-07T08:02:41.175Z,99939.73
2018-08-07T08:05:09.915Z,99943.92
2018-08-07T08:07:38.176Z,99936.38
2018-08-07T08:10:08.640Z,99940.91
2018-08-07T08:12:36.912Z,99940.50
2018-08-07T08:15:07.040Z,99938.48
2018-08-07T08:17:35.216Z,99930.14
2018-08-07T08:20:03.285Z,99921.33
2018-08-07T08:22:31.447Z,99930.70
2018-08-07T08:24:59.562Z,99929.47
2018-08-07T08:27:27.652Z,99937.76
2018-08-07T08:29:55.885Z,99932.31
2018-08-07T08:32:23.878Z,99928.00
2018-08-07T08:34:51.974Z,99929.89
2018-08-07T08:37:20.028Z,99927.75
2018-08-07T08:39:48.204Z,99932.07
2018-08-07T08:42:16.372Z,99928.78
2018-08-07T08:44:44.459Z,99920.99
2018-08-07T08:47:12.547Z,99928.33
2018-08-07T08:49:40.646Z,99927.64
2018-08-07T08:52:08.704Z,99923.80
2018-08-07T08:54:36.876Z,99922.81
2018-08-07T08:57:05.181Z,99918.94
2018-08-07T08:59:33.263Z,99909.97
2018-08-07T09:02:01.347Z,99907.52
2018-08-07T09:04:29.511Z,99908.52
2018-08-07T09:06:57.623Z,99908.42
2018-08-07T09:09:25.707Z,99912.17
2018-08-07T09:11:53.878Z,99903.63
2018-08-07T09:14:22.169Z,99899.31
2018-08-07T09:16:50.273Z,99902.41
2018-08-07T09:19:18.393Z,99899.73
2018-08-07T09:21:46.500Z,99896.02
2018-08-07T09:24:14.654Z,99893.44
2018-08-07T09:26:42.731Z,99883.72
2018-08-07T09:29:10.874Z,99879.13
2018-08-07T09:31:39.022Z,99879.27
2018-08-07T09:34:07.138Z,99873.28
2018-08-07T09:36:35.218Z,99864.58
2018-08-07T09:39:03.428Z,99865.52
2018-08-07T09:41:31.476Z,99859.13
2018-08-07T09:43:59.563Z,99868.03
2018-08-07T09:46:27.686Z,99864.11
2018-08-07T09:48:55.695Z,99862.23
2018-08-07T09:51:23.763Z,99862.20
2018-08-07T09:53:51.880Z,99861.95
2018-08-07T09:56:20.088Z,99853.95
2018-08-07T09:58:48.263Z,99850.69
2018-08-07T10:01:21.764Z,99850.72
2018-08-07T10:03:49.837Z,99843.84
2018-08-07T10:06:17.927Z,99853.48
2018-08-07T10:08:46.040Z,99847.28
2018-08-07T10:11:14.177Z,99819.48
2018-08-07T10:13:42.301Z,99839.05
2018-08-07T10:16:10.859Z,99836.94
2018-08-07T10:18:38.947Z,99833.75
2018-08-07T10:21:07.177Z,99832.39
2018-08-07T10:23:35.378Z,99822.72
2018-08-07T10:26:03.491Z,99825.30
2018-08-07T10:28:31.632Z,99828.09
2018-08-07T10:30:59.714Z,99820.28
2018-08-07T10:33:27.812Z,99820.23
2018-08-07T10:35:55.959Z,99819.94
2018-08-07T10:38:24.216Z,99817.73
2018-08-07T10:40:52.677Z,99810.80
2018-08-07T10:43:20.767Z,99809.36
2018-08-07T10:45:49.046Z,99812.19
2018-08-07T10:48:17.152Z,99805.16
2018-08-07T10:50:45.260Z,99805.90
2018-08-07T10:53:13.361Z,99801.17
2018-08-07T10:55:41.463Z,99798.86
2018-08-07T10:58:09.944Z,99802.57
2018-08-07T11:00:38.309Z,99802.80
2018-08-07T11:03:06.472Z,99790.74
2018-08-07T11:05:34.561Z,99791.47
2018-08-07T11:08:02.660Z,99794.48
2018-08-07T11:10:30.855Z,99794.84
2018-08-07T11:12:58.914Z,99793.84
2018-08-07T11:15:31.398Z,99790.97
2018-08-07T11:18:00.251Z,99788.95
2018-08-07T11:20:28.334Z,99783.23
2018-08-07T11:22:57.563Z,99777.36
2018-08-07T11:25:26.764Z,99769.22
2018-08-07T11:27:54.819Z,99780.20
2018-08-07T11:30:24.717Z,99775.67
2018-08-07T11:32:55.773Z,99775.92
2018-08-07T11:35:24.660Z,99778.59
2018-08-07T11:37:54.952Z,99776.76
2018-08-07T11:40:23.923Z,99775.41
2018-08-07T11:42:52.716Z,99767.89
2018-08-07T11:45:29.690Z,99774.53
2018-08-07T11:47:57.772Z,99771.84
2018-08-07T11:50:27.607Z,99768.20
2018-08-07T11:52:55.671Z,99764.02
2018-08-07T11:55:24.417Z,99755.63
2018-08-07T11:57:53.408Z,99745.31
2018-08-07T12:00:27.799Z,99743.06
2018-08-07T12:02:55.916Z,99744.65
2018-08-07T12:05:24.402Z,99746.59
2018-08-07T12:07:52.633Z,99739.22
2018-08-07T12:10:21.055Z,99726.02
2018-08-07T12:12:50.494Z,99733.59
2018-08-07T12:15:23.571Z,99738.11
2018-08-07T12:17:51.700Z,99734.94
2018-08-07T12:20:20.171Z,99732.11
2018-08-07T12:22:48.392Z,99721.30
2018-08-07T12:25:17.271Z,99719.95
2018-08-07T12:27:45.461Z,99707.73
2018-08-07T12:30:18.950Z,99717.73
2018-08-07T12:32:47.175Z,99722.50
2018-08-07T12:35:16.782Z,99708.39
2018-08-07T12:37:45.101Z,99703.86
2018-08-07T12:40:17.024Z,99704.65
2018-08-07T12:42:45.900Z,99701.66
2018-08-07T12:45:13.955Z,99697.95
2018-08-07T12:47:42.715Z,99697.64
2018-08-07T12:50:11.956Z,99702.34
2018-08-07T12:52:40.010Z,99706.84
2018-08-07T12:55:10.160Z,99704.11
2018-08-07T12:57:38.209Z,99705.11
2018-08-07T13:00:13.664Z,99695.94
2018-08-07T13:02:41.767Z,99688.88
2018-08-07T13:05:09.884Z,99687.11
2018-08-07T13:07:37.998Z,99682.27
2018-08-07T13:10:09.325Z,99682.83
2018-08-07T13:12:37.903Z,99678.68
2018-08-07T13:15:07.193Z,99668.19
2018-08-07T13:17:35.340Z,99672.63
2018-08-07T13:20:03.988Z,99672.95
2018-08-07T13:22:33.161Z,99675.17
2018-08-07T13:25:01.320Z,99670.43
2018-08-07T13:27:29.593Z,99668.66
2018-08-07T13:29:57.746Z,99665.78
2018-08-07T13:32:26.896Z,99660.80
2018-08-07T13:34:55.031Z,99658.56
2018-08-07T13:37:23.273Z,99657.34
2018-08-07T13:39:51.385Z,99653.13
2018-08-07T13:42:19.596Z,99660.12
2018-08-07T13:44:48.072Z,99660.46
2018-08-07T13:47:21.895Z,99647.68
2018-08-07T13:49:50.017Z,99646.36
2018-08-07T13:52:18.409Z,99644.70
2018-08-07T13:54:46.691Z,99632.00
2018-08-07T13:57:15.068Z,99640.20
2018-08-07T13:59:43.179Z,99626.53
2018-08-07T14:02:11.286Z,99630.27
2018-08-07T14:04:40.362Z,99624.42
2018-08-07T14:07:08.757Z,99624.10
2018-08-07T14:09:36.849Z,99619.67
2018-08-07T14:12:05.001Z,99622.33
2018-08-07T14:14:33.167Z,99614.27
2018-08-07T14:17:01.344Z,99611.52
2018-08-07T14:19:29.694Z,99609.53
2018-08-07T14:21:57.735Z,99595.39
2018-08-07T14:24:25.968Z,99592.73
2018-08-07T14:26:54.070Z,99588.43
2018-08-07T14:29:22.140Z,99584.23
2018-08-07T14:31:50.325Z,99596.81
2018-08-07T14:34:18.423Z,99584.66
2018-08-07T14:36:47.565Z,99588.77
2018-08-07T14:39:15.688Z,99585.88
2018-08-07T14:41:43.826Z,99583.91
2018-08-07T14:44:12.294Z,99588.64
2018-08-07T14:46:40.410Z,99586.88
2018-08-07T14:49:08.785Z,99575.92
2018-08-07T14:51:36.893Z,99575.62
2018-08-07T14:54:04.990Z,99567.20
2018-08-07T14:56:33.184Z,99567.41
2018-08-07T14:59:01.260Z,99566.97
2018-08-07T15:01:29.437Z,99574.06
2018-08-07T15:03:57.786Z,99564.66
2018-08-07T15:06:25.938Z,99565.89
2018-08-07T15:08:54.043Z,99562.11
2018-08-07T15:11:22.279Z,99552.37
2018-08-07T15:13:50.491Z,99550.05
2018-08-07T15:16:18.603Z,99555.47
2018-08-07T15:18:46.808Z,99554.36
2018-08-07T15:21:14.976Z,99549.72
2018-08-07T15:23:43.427Z,99545.66
2018-08-07T15:26:16.732Z,99554.72
2018-08-07T15:28:44.995Z,99548.28
2018-08-07T15:31:13.823Z,99541.88
2018-08-07T15:33:42.872Z,99549.25
2018-08-07T15:36:11.017Z,99546.17
2018-08-07T15:38:39.264Z,99545.64
2018-08-07T15:41:07.636Z,99547.73
2018-08-07T15:43:35.740Z,99551.92
2018-08-07T15:46:03.909Z,99543.75
2018-08-07T15:48:32.166Z,99540.55
2018-08-07T15:51:00.340Z,99540.31
2018-08-07T15:53:28.465Z,99539.65
2018-08-07T15:55:56.573Z,99544.41
2018-08-07T15:58:24.651Z,99534.23
2018-08-07T16:00:52.760Z,99541.34
2018-08-07T16:03:21.004Z,99541.47
2018-08-07T16:05:49.200Z,99541.44
2018-08-07T16:08:17.265Z,99538.03
2018-08-07T16:10:45.415Z,99538.25
2018-08-07T16:13:13.531Z,99542.34
2018-08-07T16:15:41.680Z,99541.56
2018-08-07T16:18:09.800Z,99528.11
2018-08-07T16:20:38.256Z,99540.13
2018-08-07T16:23:06.426Z,99538.16
2018-08-07T16:25:34.558Z,99540.58
2018-08-07T16:28:02.689Z,99526.88
2018-08-07T16:30:30.876Z,99534.72
2018-08-07T16:32:58.963Z,99533.61
2018-08-07T16:35:27.114Z,99527.77
2018-08-07T16:37:55.342Z,99525.11
2018-08-07T16:40:24.460Z,99520.80
2018-08-07T16:42:53.196Z,99516.70
2018-08-07T16:45:22.253Z,99511.94
2018-08-07T16:47:50.405Z,99513.05
2018-08-07T16:50:22.845Z,99507.95
2018-08-07T16:52:52.270Z,99512.50
2018-08-07T16:55:56.996Z,99503.11
2018-08-07T16:58:25.213Z,99506.76
2018-08-07T17:00:53.362Z,99510.30
2018-08-07T17:03:21.544Z,99506.97
2018-08-07T17:05:49.911Z,99506.97
2018-08-07T17:08:18.082Z,99516.81
2018-08-07T17:10:46.264Z,99510.95
2018-08-07T17:13:14.400Z,99511.61
2018-08-07T17:15:43.791Z,99510.17
2018-08-07T17:18:12.069Z,99510.17
2018-08-07T17:20:40.572Z,99508.65
2018-08-07T17:23:08.817Z,99504.67
2018-08-07T17:25:36.996Z,99514.28
2018-08-07T17:28:05.174Z,99510.63
2018-08-07T17:30:33.904Z,99505.91
2018-08-07T17:33:02.035Z,99506.56
2018-08-07T17:35:31.445Z,99504.92
2018-08-07T17:37:59.732Z,99502.47
2018-08-07T17:40:28.880Z,99508.57
2018-08-07T17:42:58.084Z,99502.95
2018-08-07T17:45:26.393Z,99503.48
2018-08-07T17:47:54.558Z,99500.41
2018-08-07T17:50:24.974Z,99508.23
2018-08-07T17:52:54.357Z,99520.83
2018-08-07T17:55:22.496Z,99517.17
2018-08-07T17:57:52.169Z,99510.98
2018-08-07T18:00:22.045Z,99513.84
2018-08-07T18:02:52.594Z,99514.85
2018-08-07T18:05:21.019Z,99513.62
2018-08-07T18:07:51.059Z,99515.04
2018-08-07T18:10:20.338Z,99514.61
2018-08-07T18:15:34.027Z,99524.81
2018-08-07T18:18:02.094Z,99528.20
2018-08-07T18:20:30.503Z,99528.58
2018-08-07T18:22:59.363Z,99529.83
2018-08-07T18:25:27.628Z,99534.97
2018-08-07T18:27:55.746Z,99534.45
2018-08-07T18:30:25.249Z,99538.92
2018-08-07T18:32:53.520Z,99536.36
2018-08-07T18:35:23.892Z,99537.72
2018-08-07T18:37:52.217Z,99548.68
2018-08-07T18:40:20.350Z,99551.80
2018-08-07T18:42:48.766Z,99562.97
2018-08-07T18:45:16.885Z,99575.34
2018-08-07T18:47:45.629Z,99577.33
2018-08-07T18:50:15.177Z,99586.69
2018-08-07T18:52:43.344Z,99590.89
2018-08-07T18:55:13.042Z,99601.34
2018-08-07T18:57:44.855Z,99598.59
2018-08-07T19:00:17.307Z,99599.97
2018-08-07T19:02:45.484Z,99607.04
2018-08-07T19:05:15.143Z,99605.19
2018-08-07T19:07:43.292Z,99608.61
2018-08-07T19:10:11.885Z,99604.88
2018-08-07T19:12:40.064Z,99606.72
2018-08-07T19:15:09.402Z,99610.03
2018-08-07T19:17:37.762Z,99615.26
2018-08-07T19:20:06.353Z,99616.39
2018-08-07T19:22:34.636Z,99612.37
2018-08-07T19:25:02.771Z,99614.62
2018-08-07T19:27:30.965Z,99620.50
2018-08-07T19:30:00.057Z,99621.34
2018-08-07T19:32:28.539Z,99626.91
2018-08-07T19:34:56.621Z,99621.25
2018-08-07T19:37:24.707Z,99620.37
2018-08-07T19:39:52.838Z,99620.03
2018-08-07T19:42:20.979Z,99612.52
2018-08-07T19:44:49.269Z,99615.35
2018-08-07T19:47:19.472Z,99614.84
2018-08-07T19:49:47.814Z,99613.97
2018-08-07T19:52:16.691Z,99611.87
2018-08-07T19:54:44.794Z,99608.41
2018-08-07T19:57:13.253Z,99606.31
2018-08-07T19:59:41.404Z,99597.24
2018-08-07T20:02:09.557Z,99592.30
2018-08-07T20:04:37.785Z,99588.17
2018-08-07T20:07:05.968Z,99583.11
2018-08-07T20:09:34.091Z,99581.41
2018-08-07T20:12:02.174Z,99579.97
2018-08-07T20:14:30.321Z,99587.84
2018-08-07T20:16:58.449Z,99590.39
2018-08-07T20:19:26.567Z,99596.84
2018-08-07T20:21:54.677Z,99590.59
2018-08-07T20:24:23.031Z,99588.11
2018-08-07T20:26:51.179Z,99588.59
2018-08-07T20:29:19.317Z,99594.62
2018-08-07T20:31:47.407Z,99597.83
2018-08-07T20:34:15.499Z,99599.72
2018-08-07T20:36:43.648Z,99603.17
2018-08-07T20:39:12.275Z,99607.66
2018-08-07T20:41:40.481Z,99609.53
2018-08-07T20:44:08.600Z,99611.45
2018-08-07T20:46:36.665Z,99613.71
2018-08-07T20:49:04.856Z,99608.36
2018-08-07T20:51:32.997Z,99604.55
2018-08-07T20:54:01.061Z,99607.88
2018-08-07T20:56:29.122Z,99610.16
2018-08-07T20:58:57.287Z,99618.39
2018-08-07T21:01:25.702Z,99626.50
2018-08-07T21:03:53.908Z,99625.30
2018-08-07T21:06:22.009Z,99622.13
2018-08-07T21:08:50.102Z,99627.13
2018-08-07T21:11:19.190Z,99624.20
2018-08-07T21:13:47.561Z,99624.79
2018-08-07T21:16:15.800Z,99631.20
2018-08-07T21:18:44.935Z,99629.10
2018-08-07T21:21:13.061Z,99629.69
2018-08-07T21:23:41.175Z,99633.74
2018-08-07T21:26:09.576Z,99628.91
2018-08-07T21:28:37.865Z,99637.01
2018-08-07T21:31:06.027Z,99642.00
2018-08-07T21:33:34.203Z,99634.20
2018-08-07T21:36:02.288Z,99633.81
2018-08-07T21:38:30.503Z,99630.77
2018-08-07T21:40:58.658Z,99626.44
2018-08-07T21:43:26.745Z,99627.02
2018-08-07T21:45:54.868Z,99628.16
2018-08-07T21:48:23.096Z,99620.78
2018-08-07T21:50:51.291Z,99612.20
2018-08-07T21:53:19.401Z,99612.54
2018-08-07T21:55:47.673Z,99616.52
2018-08-07T21:58:15.784Z,99612.98
2018-08-07T22:00:47.479Z,99601.20
2018-08-07T22:03:15.572Z,99599.20
2018-08-07T22:05:43.677Z,99600.20
2018-08-07T22:08:13.088Z,99589.99
2018-08-07T22:10:41.318Z,99586.73
2018-08-07T22:13:09.456Z,99580.48
2018-08-07T22:15:37.612Z,99582.86
2018-08-07T22:18:06.720Z,99587.34
2018-08-07T22:20:34.810Z,99591.80
2018-08-07T22:23:02.955Z,99592.48
2018-08-07T22:25:31.054Z,99594.89
2018-08-07T22:27:59.157Z,99591.50
2018-08-07T22:30:27.287Z,99595.33
2018-08-07T22:32:55.548Z,99593.20
2018-08-07T22:35:23.698Z,99596.59
2018-08-07T22:37:52.191Z,99599.98
2018-08-07T22:40:20.346Z,99591.04
2018-08-07T22:42:48.443Z,99589.63
2018-08-07T22:45:17.679Z,99588.20
2018-08-07T22:47:45.828Z,99576.08
2018-08-07T22:50:15.469Z,99568.05
2018-08-07T22:52:44.003Z,99567.93
2018-08-07T22:55:13.678Z,99565.57
2018-08-07T22:57:41.823Z,99557.70
2018-08-07T23:00:14.241Z,99546.88
2018-08-07T23:02:42.296Z,99547.50
2018-08-07T23:05:11.157Z,99539.98
2018-08-07T23:07:39.236Z,99532.47
2018-08-07T23:10:10.816Z,99530.59
2018-08-07T23:12:38.974Z,99530.94
2018-08-07T23:15:09.514Z,99526.77
2018-08-07T23:17:37.583Z,99527.09
2018-08-07T23:20:06.129Z,99531.84
2018-08-07T23:22:34.544Z,99530.91
2018-08-07T23:25:02.677Z,99532.05
2018-08-07T23:27:30.871Z,99537.42
2018-08-07T23:29:58.956Z,99546.28
2018-08-07T23:32:27.008Z,99557.96
2018-08-07T23:34:55.713Z,99559.86
2018-08-07T23:37:23.842Z,99560.36
2018-08-07T23:39:51.967Z,99552.18
2018-08-07T23:42:20.040Z,99545.45
2018-08-07T23:44:48.183Z,99545.95
2018-08-07T23:47:16.277Z,99544.53
2018-08-07T23:49:45.178Z,99545.52
2018-08-07T23:52:13.252Z,99541.11
2018-08-07T23:54:41.408Z,99537.84
2018-08-07T23:57:09.471Z,99539.22
2018-08-07T23:59:37.579Z,99527.30
